sensor_id;sensor_type;location;lat;lon;timestamp;P1;durP1;ratioP1;P2;durP2;ratioP2
80127;SDS011;69440;52.118;5.408;2023-10-13T00:00:27;15.95;;;8.98;;
80127;SDS011;69440;52.118;5.408;2023-10-13T00:02:58;18.95;;;8.80;;
80127;SDS011;69440;52.118;5.408;2023-10-13T00:05:28;13.57;;;8.30;;
80127;SDS011;69440;52.118;5.408;2023-10-13T00:08:00;14.20;;;8.18;;
80127;SDS011;69440;52.118;5.408;2023-10-13T00:10:28;18.05;;;8.68;;
80127;SDS011;69440;52.118;5.408;2023-10-13T00:12:58;19.58;;;9.18;;
80127;SDS011;69440;52.118;5.408;2023-10-13T00:15:42;17.63;;;8.32;;
80127;SDS011;69440;52.118;5.408;2023-10-13T00:18:25;14.48;;;8.27;;
80127;SDS011;69440;52.118;5.408;2023-10-13T00:20:53;21.58;;;9.13;;
80127;SDS011;69440;52.118;5.408;2023-10-13T00:23:23;18.77;;;9.07;;
80127;SDS011;69440;52.118;5.408;2023-10-13T00:25:53;14.57;;;8.15;;
80127;SDS011;69440;52.118;5.408;2023-10-13T00:28:26;21.48;;;9.25;;
80127;SDS011;69440;52.118;5.408;2023-10-13T00:31:01;17.08;;;8.55;;
80127;SDS011;69440;52.118;5.408;2023-10-13T00:33:40;13.38;;;7.38;;
80127;SDS011;69440;52.118;5.408;2023-10-13T00:36:16;15.02;;;8.35;;
80127;SDS011;69440;52.118;5.408;2023-10-13T00:38:45;13.98;;;7.72;;
80127;SDS011;69440;52.118;5.408;2023-10-13T00:41:15;17.27;;;8.20;;
80127;SDS011;69440;52.118;5.408;2023-10-13T00:43:46;12.90;;;7.95;;
80127;SDS011;69440;52.118;5.408;2023-10-13T00:46:34;13.35;;;7.43;;
80127;SDS011;69440;52.118;5.408;2023-10-13T00:49:03;14.82;;;8.00;;
80127;SDS011;69440;52.118;5.408;2023-10-13T00:51:35;14.30;;;7.53;;
80127;SDS011;69440;52.118;5.408;2023-10-13T00:54:07;15.25;;;7.65;;
80127;SDS011;69440;52.118;5.408;2023-10-13T00:56:38;12.57;;;7.15;;
80127;SDS011;69440;52.118;5.408;2023-10-13T00:59:13;15.80;;;8.20;;
80127;SDS011;69440;52.118;5.408;2023-10-13T01:01:40;14.25;;;8.23;;
80127;SDS011;69440;52.118;5.408;2023-10-13T01:04:10;18.00;;;8.23;;
80127;SDS011;69440;52.118;5.408;2023-10-13T01:06:41;14.30;;;8.38;;
80127;SDS011;69440;52.118;5.408;2023-10-13T01:09:08;16.85;;;8.32;;
80127;SDS011;69440;52.118;5.408;2023-10-13T01:11:46;14.70;;;8.70;;
80127;SDS011;69440;52.118;5.408;2023-10-13T01:14:18;15.10;;;9.13;;
80127;SDS011;69440;52.118;5.408;2023-10-13T01:16:49;17.10;;;9.68;;
80127;SDS011;69440;52.118;5.408;2023-10-13T01:19:19;13.55;;;8.73;;
80127;SDS011;69440;52.118;5.408;2023-10-13T01:21:51;14.90;;;9.70;;
80127;SDS011;69440;52.118;5.408;2023-10-13T01:24:28;14.38;;;9.02;;
80127;SDS011;69440;52.118;5.408;2023-10-13T01:26:57;16.92;;;10.00;;
80127;SDS011;69440;52.118;5.408;2023-10-13T01:29:29;16.20;;;9.75;;
80127;SDS011;69440;52.118;5.408;2023-10-13T01:31:56;15.15;;;10.40;;
80127;SDS011;69440;52.118;5.408;2023-10-13T01:34:23;17.98;;;9.80;;
80127;SDS011;69440;52.118;5.408;2023-10-13T01:36:50;14.85;;;9.60;;
80127;SDS011;69440;52.118;5.408;2023-10-13T01:39:20;15.75;;;10.23;;
80127;SDS011;69440;52.118;5.408;2023-10-13T01:41:48;18.08;;;10.40;;
80127;SDS011;69440;52.118;5.408;2023-10-13T01:44:25;16.15;;;9.85;;
80127;SDS011;69440;52.118;5.408;2023-10-13T01:47:01;17.83;;;10.43;;
80127;SDS011;69440;52.118;5.408;2023-10-13T01:49:35;19.10;;;9.65;;
80127;SDS011;69440;52.118;5.408;2023-10-13T01:52:16;15.18;;;9.57;;
80127;SDS011;69440;52.118;5.408;2023-10-13T01:54:43;17.40;;;9.55;;
80127;SDS011;69440;52.118;5.408;2023-10-13T01:57:11;16.55;;;9.57;;
80127;SDS011;69440;52.118;5.408;2023-10-13T01:59:44;18.95;;;9.38;;
80127;SDS011;69440;52.118;5.408;2023-10-13T02:02:11;11.10;;;8.48;;
80127;SDS011;69440;52.118;5.408;2023-10-13T02:04:41;16.33;;;9.85;;
80127;SDS011;69440;52.118;5.408;2023-10-13T02:07:26;13.77;;;8.05;;
80127;SDS011;69440;52.118;5.408;2023-10-13T02:09:56;18.60;;;8.38;;
80127;SDS011;69440;52.118;5.408;2023-10-13T02:12:24;15.52;;;8.63;;
80127;SDS011;69440;52.118;5.408;2023-10-13T02:15:12;12.60;;;8.30;;
80127;SDS011;69440;52.118;5.408;2023-10-13T02:17:49;13.48;;;8.00;;
80127;SDS011;69440;52.118;5.408;2023-10-13T02:20:20;13.77;;;8.38;;
80127;SDS011;69440;52.118;5.408;2023-10-13T02:22:49;14.90;;;7.47;;
80127;SDS011;69440;52.118;5.408;2023-10-13T02:25:17;14.45;;;8.20;;
80127;SDS011;69440;52.118;5.408;2023-10-13T02:28:01;11.95;;;7.57;;
80127;SDS011;69440;52.118;5.408;2023-10-13T02:30:28;14.68;;;7.75;;
80127;SDS011;69440;52.118;5.408;2023-10-13T02:32:55;11.70;;;7.47;;
80127;SDS011;69440;52.118;5.408;2023-10-13T02:35:23;15.27;;;7.75;;
80127;SDS011;69440;52.118;5.408;2023-10-13T02:37:57;11.98;;;7.28;;
80127;SDS011;69440;52.118;5.408;2023-10-13T02:40:25;16.70;;;7.65;;
80127;SDS011;69440;52.118;5.408;2023-10-13T02:42:52;14.05;;;7.03;;
80127;SDS011;69440;52.118;5.408;2023-10-13T02:45:18;11.50;;;6.65;;
80127;SDS011;69440;52.118;5.408;2023-10-13T02:47:52;14.68;;;7.30;;
80127;SDS011;69440;52.118;5.408;2023-10-13T02:50:37;13.07;;;7.05;;
80127;SDS011;69440;52.118;5.408;2023-10-13T02:53:09;12.18;;;6.95;;
80127;SDS011;69440;52.118;5.408;2023-10-13T02:55:48;13.98;;;7.05;;
80127;SDS011;69440;52.118;5.408;2023-10-13T02:58:19;13.20;;;7.22;;
80127;SDS011;69440;52.118;5.408;2023-10-13T03:00:47;15.27;;;6.70;;
80127;SDS011;69440;52.118;5.408;2023-10-13T03:03:14;11.30;;;6.30;;
80127;SDS011;69440;52.118;5.408;2023-10-13T03:05:45;14.43;;;7.03;;
80127;SDS011;69440;52.118;5.408;2023-10-13T03:08:12;12.07;;;6.93;;
80127;SDS011;69440;52.118;5.408;2023-10-13T03:10:44;13.18;;;6.78;;
80127;SDS011;69440;52.118;5.408;2023-10-13T03:13:14;11.52;;;7.10;;
80127;SDS011;69440;52.118;5.408;2023-10-13T03:15:40;12.77;;;6.72;;
80127;SDS011;69440;52.118;5.408;2023-10-13T03:18:07;12.30;;;6.75;;
80127;SDS011;69440;52.118;5.408;2023-10-13T03:20:33;13.98;;;7.07;;
80127;SDS011;69440;52.118;5.408;2023-10-13T03:23:08;15.90;;;6.63;;
80127;SDS011;69440;52.118;5.408;2023-10-13T03:25:36;11.40;;;6.25;;
80127;SDS011;69440;52.118;5.408;2023-10-13T03:28:09;13.07;;;7.10;;
80127;SDS011;69440;52.118;5.408;2023-10-13T03:30:40;13.80;;;6.18;;
80127;SDS011;69440;52.118;5.408;2023-10-13T03:33:09;10.85;;;6.28;;
80127;SDS011;69440;52.118;5.408;2023-10-13T03:35:38;10.43;;;6.32;;
80127;SDS011;69440;52.118;5.408;2023-10-13T03:38:08;12.98;;;6.40;;
80127;SDS011;69440;52.118;5.408;2023-10-13T03:40:45;12.60;;;6.00;;
80127;SDS011;69440;52.118;5.408;2023-10-13T03:43:22;17.10;;;6.05;;
80127;SDS011;69440;52.118;5.408;2023-10-13T03:45:50;13.30;;;5.63;;
80127;SDS011;69440;52.118;5.408;2023-10-13T03:48:27;11.23;;;5.88;;
80127;SDS011;69440;52.118;5.408;2023-10-13T03:50:58;11.45;;;5.65;;
80127;SDS011;69440;52.118;5.408;2023-10-13T03:53:30;10.55;;;5.65;;
80127;SDS011;69440;52.118;5.408;2023-10-13T03:56:00;9.60;;;6.00;;
80127;SDS011;69440;52.118;5.408;2023-10-13T03:58:57;9.57;;;5.65;;
80127;SDS011;69440;52.118;5.408;2023-10-13T04:01:30;9.90;;;6.28;;
80127;SDS011;69440;52.118;5.408;2023-10-13T04:03:58;14.00;;;6.35;;
80127;SDS011;69440;52.118;5.408;2023-10-13T04:06:30;13.60;;;5.82;;
80127;SDS011;69440;52.118;5.408;2023-10-13T04:09:20;13.07;;;6.28;;
80127;SDS011;69440;52.118;5.408;2023-10-13T04:11:57;9.82;;;6.18;;
80127;SDS011;69440;52.118;5.408;2023-10-13T04:14:30;12.43;;;5.20;;
80127;SDS011;69440;52.118;5.408;2023-10-13T04:17:20;7.70;;;5.03;;
80127;SDS011;69440;52.118;5.408;2023-10-13T04:19:52;9.90;;;5.53;;
80127;SDS011;69440;52.118;5.408;2023-10-13T04:25:15;10.48;;;5.70;;
80127;SDS011;69440;52.118;5.408;2023-10-13T04:28:05;10.23;;;5.93;;
80127;SDS011;69440;52.118;5.408;2023-10-13T04:30:49;11.00;;;5.28;;
80127;SDS011;69440;52.118;5.408;2023-10-13T04:36:13;10.85;;;5.68;;
80127;SDS011;69440;52.118;5.408;2023-10-13T04:38:45;9.60;;;4.97;;
80127;SDS011;69440;52.118;5.408;2023-10-13T04:41:32;9.95;;;5.60;;
80127;SDS011;69440;52.118;5.408;2023-10-13T04:44:15;12.48;;;5.65;;
80127;SDS011;69440;52.118;5.408;2023-10-13T04:47:02;6.97;;;4.60;;
80127;SDS011;69440;52.118;5.408;2023-10-13T04:49:30;7.00;;;4.65;;
80127;SDS011;69440;52.118;5.408;2023-10-13T04:52:09;8.82;;;4.90;;
80127;SDS011;69440;52.118;5.408;2023-10-13T04:54:37;8.98;;;4.80;;
80127;SDS011;69440;52.118;5.408;2023-10-13T04:57:23;6.97;;;4.47;;
80127;SDS011;69440;52.118;5.408;2023-10-13T05:00:13;6.20;;;3.65;;
80127;SDS011;69440;52.118;5.408;2023-10-13T05:02:41;7.55;;;3.95;;
80127;SDS011;69440;52.118;5.408;2023-10-13T05:05:27;6.45;;;3.88;;
80127;SDS011;69440;52.118;5.408;2023-10-13T05:08:13;6.18;;;3.85;;
80127;SDS011;69440;52.118;5.408;2023-10-13T05:11:02;6.03;;;3.80;;
80127;SDS011;69440;52.118;5.408;2023-10-13T05:13:48;7.25;;;4.00;;
80127;SDS011;69440;52.118;5.408;2023-10-13T05:16:33;6.35;;;4.13;;
80127;SDS011;69440;52.118;5.408;2023-10-13T05:19:19;7.75;;;4.75;;
80127;SDS011;69440;52.118;5.408;2023-10-13T05:22:03;8.45;;;4.53;;
80127;SDS011;69440;52.118;5.408;2023-10-13T05:24:48;9.13;;;5.30;;
80127;SDS011;69440;52.118;5.408;2023-10-13T05:27:34;12.70;;;4.93;;
80127;SDS011;69440;52.118;5.408;2023-10-13T05:30:19;8.65;;;5.10;;
80127;SDS011;69440;52.118;5.408;2023-10-13T05:33:05;9.48;;;5.50;;
80127;SDS011;69440;52.118;5.408;2023-10-13T05:35:50;10.23;;;5.43;;
80127;SDS011;69440;52.118;5.408;2023-10-13T05:38:35;9.60;;;5.43;;
80127;SDS011;69440;52.118;5.408;2023-10-13T05:41:20;7.47;;;5.50;;
80127;SDS011;69440;52.118;5.408;2023-10-13T05:44:05;14.30;;;8.50;;
80127;SDS011;69440;52.118;5.408;2023-10-13T05:46:50;12.20;;;5.03;;
80127;SDS011;69440;52.118;5.408;2023-10-13T05:49:37;9.05;;;4.13;;
80127;SDS011;69440;52.118;5.408;2023-10-13T05:52:31;8.60;;;4.97;;
80127;SDS011;69440;52.118;5.408;2023-10-13T05:55:33;8.48;;;4.13;;
80127;SDS011;69440;52.118;5.408;2023-10-13T05:58:18;6.88;;;3.70;;
80127;SDS011;69440;52.118;5.408;2023-10-13T06:01:03;7.47;;;4.07;;
80127;SDS011;69440;52.118;5.408;2023-10-13T06:03:48;10.20;;;3.50;;
80127;SDS011;69440;52.118;5.408;2023-10-13T06:06:33;9.13;;;4.00;;
80127;SDS011;69440;52.118;5.408;2023-10-13T06:09:18;9.60;;;3.58;;
80127;SDS011;69440;52.118;5.408;2023-10-13T06:12:03;10.18;;;3.83;;
80127;SDS011;69440;52.118;5.408;2023-10-13T06:14:48;14.35;;;4.78;;
80127;SDS011;69440;52.118;5.408;2023-10-13T06:17:33;10.27;;;4.20;;
80127;SDS011;69440;52.118;5.408;2023-10-13T06:20:18;12.18;;;4.78;;
80127;SDS011;69440;52.118;5.408;2023-10-13T06:23:03;10.85;;;4.70;;
80127;SDS011;69440;52.118;5.408;2023-10-13T06:25:52;10.48;;;4.13;;
80127;SDS011;69440;52.118;5.408;2023-10-13T06:28:37;9.18;;;4.40;;
80127;SDS011;69440;52.118;5.408;2023-10-13T06:31:07;7.45;;;4.13;;
80127;SDS011;69440;52.118;5.408;2023-10-13T06:33:41;10.07;;;3.88;;
80127;SDS011;69440;52.118;5.408;2023-10-13T06:36:11;9.93;;;4.68;;
80127;SDS011;69440;52.118;5.408;2023-10-13T06:38:38;10.88;;;5.03;;
80127;SDS011;69440;52.118;5.408;2023-10-13T06:41:05;10.82;;;4.57;;
80127;SDS011;69440;52.118;5.408;2023-10-13T06:43:36;7.43;;;3.92;;
80127;SDS011;69440;52.118;5.408;2023-10-13T06:46:06;10.50;;;4.72;;
80127;SDS011;69440;52.118;5.408;2023-10-13T06:48:42;12.02;;;4.72;;
80127;SDS011;69440;52.118;5.408;2023-10-13T06:51:10;9.05;;;4.68;;
80127;SDS011;69440;52.118;5.408;2023-10-13T06:53:48;11.75;;;5.38;;
80127;SDS011;69440;52.118;5.408;2023-10-13T06:56:15;9.32;;;5.40;;
80127;SDS011;69440;52.118;5.408;2023-10-13T06:58:48;10.23;;;5.90;;
80127;SDS011;69440;52.118;5.408;2023-10-13T07:01:15;9.45;;;5.50;;
80127;SDS011;69440;52.118;5.408;2023-10-13T07:03:48;8.85;;;5.82;;
80127;SDS011;69440;52.118;5.408;2023-10-13T07:06:22;12.73;;;6.22;;
80127;SDS011;69440;52.118;5.408;2023-10-13T07:08:48;12.85;;;6.32;;
80127;SDS011;69440;52.118;5.408;2023-10-13T07:11:18;9.18;;;7.00;;
80127;SDS011;69440;52.118;5.408;2023-10-13T07:14:00;13.10;;;6.22;;
80127;SDS011;69440;52.118;5.408;2023-10-13T07:16:42;10.75;;;6.20;;
80127;SDS011;69440;52.118;5.408;2023-10-13T07:19:13;9.40;;;6.30;;
80127;SDS011;69440;52.118;5.408;2023-10-13T07:21:45;8.70;;;6.53;;
80127;SDS011;69440;52.118;5.408;2023-10-13T07:24:12;10.82;;;6.18;;
80127;SDS011;69440;52.118;5.408;2023-10-13T07:26:40;12.13;;;6.63;;
80127;SDS011;69440;52.118;5.408;2023-10-13T07:31:39;12.25;;;5.80;;
80127;SDS011;69440;52.118;5.408;2023-10-13T07:34:07;11.15;;;5.63;;
80127;SDS011;69440;52.118;5.408;2023-10-13T07:36:52;11.00;;;5.55;;
80127;SDS011;69440;52.118;5.408;2023-10-13T07:39:36;12.27;;;5.88;;
80127;SDS011;69440;52.118;5.408;2023-10-13T07:42:05;9.77;;;5.05;;
80127;SDS011;69440;52.118;5.408;2023-10-13T07:44:37;11.70;;;5.20;;
80127;SDS011;69440;52.118;5.408;2023-10-13T07:47:15;10.02;;;4.70;;
80127;SDS011;69440;52.118;5.408;2023-10-13T07:49:44;13.48;;;5.15;;
80127;SDS011;69440;52.118;5.408;2023-10-13T07:52:11;8.85;;;5.03;;
80127;SDS011;69440;52.118;5.408;2023-10-13T07:54:51;13.43;;;4.38;;
80127;SDS011;69440;52.118;5.408;2023-10-13T07:57:29;12.82;;;5.03;;
80127;SDS011;69440;52.118;5.408;2023-10-13T07:59:56;11.85;;;5.40;;
80127;SDS011;69440;52.118;5.408;2023-10-13T08:02:57;10.48;;;4.40;;
80127;SDS011;69440;52.118;5.408;2023-10-13T08:05:54;15.13;;;6.03;;
80127;SDS011;69440;52.118;5.408;2023-10-13T08:08:47;12.05;;;5.20;;
80127;SDS011;69440;52.118;5.408;2023-10-13T08:11:19;9.95;;;4.10;;
80127;SDS011;69440;52.118;5.408;2023-10-13T08:17:02;12.32;;;4.60;;
80127;SDS011;69440;52.118;5.408;2023-10-13T08:19:34;8.38;;;4.13;;
80127;SDS011;69440;52.118;5.408;2023-10-13T08:22:10;12.75;;;4.72;;
80127;SDS011;69440;52.118;5.408;2023-10-13T08:24:47;14.05;;;4.63;;
80127;SDS011;69440;52.118;5.408;2023-10-13T08:27:16;10.82;;;4.10;;
80127;SDS011;69440;52.118;5.408;2023-10-13T08:30:15;12.65;;;4.47;;
80127;SDS011;69440;52.118;5.408;2023-10-13T08:32:57;10.18;;;4.30;;
80127;SDS011;69440;52.118;5.408;2023-10-13T08:35:25;9.20;;;4.30;;
80127;SDS011;69440;52.118;5.408;2023-10-13T08:38:02;13.57;;;4.78;;
80127;SDS011;69440;52.118;5.408;2023-10-13T08:40:58;11.05;;;4.15;;
80127;SDS011;69440;52.118;5.408;2023-10-13T08:43:44;10.10;;;4.32;;
80127;SDS011;69440;52.118;5.408;2023-10-13T08:46:17;14.50;;;4.28;;
80127;SDS011;69440;52.118;5.408;2023-10-13T08:48:55;12.52;;;4.45;;
80127;SDS011;69440;52.118;5.408;2023-10-13T08:51:40;12.02;;;4.25;;
80127;SDS011;69440;52.118;5.408;2023-10-13T08:54:12;11.73;;;4.10;;
80127;SDS011;69440;52.118;5.408;2023-10-13T08:57:01;11.75;;;3.90;;
80127;SDS011;69440;52.118;5.408;2023-10-13T08:59:59;11.43;;;4.78;;
80127;SDS011;69440;52.118;5.408;2023-10-13T09:02:45;13.18;;;3.33;;
80127;SDS011;69440;52.118;5.408;2023-10-13T09:08:29;10.85;;;4.35;;
80127;SDS011;69440;52.118;5.408;2023-10-13T09:11:03;11.70;;;3.92;;
80127;SDS011;69440;52.118;5.408;2023-10-13T09:13:39;11.02;;;5.18;;
80127;SDS011;69440;52.118;5.408;2023-10-13T09:16:12;13.85;;;3.80;;
80127;SDS011;69440;52.118;5.408;2023-10-13T09:19:14;15.10;;;4.15;;
80127;SDS011;69440;52.118;5.408;2023-10-13T09:21:41;10.70;;;4.35;;
80127;SDS011;69440;52.118;5.408;2023-10-13T09:24:08;10.05;;;3.97;;
80127;SDS011;69440;52.118;5.408;2023-10-13T09:26:49;12.32;;;4.85;;
80127;SDS011;69440;52.118;5.408;2023-10-13T09:29:20;10.40;;;4.30;;
80127;SDS011;69440;52.118;5.408;2023-10-13T09:31:48;11.07;;;3.78;;
80127;SDS011;69440;52.118;5.408;2023-10-13T09:34:26;11.52;;;3.72;;
80127;SDS011;69440;52.118;5.408;2023-10-13T09:36:57;9.73;;;4.03;;
80127;SDS011;69440;52.118;5.408;2023-10-13T09:39:25;9.85;;;4.68;;
80127;SDS011;69440;52.118;5.408;2023-10-13T09:42:11;9.23;;;4.20;;
80127;SDS011;69440;52.118;5.408;2023-10-13T09:44:42;9.02;;;4.28;;
80127;SDS011;69440;52.118;5.408;2023-10-13T09:47:16;13.98;;;4.25;;
80127;SDS011;69440;52.118;5.408;2023-10-13T09:49:50;13.30;;;3.90;;
80127;SDS011;69440;52.118;5.408;2023-10-13T09:52:30;11.20;;;4.03;;
80127;SDS011;69440;52.118;5.408;2023-10-13T09:55:03;13.82;;;4.30;;
80127;SDS011;69440;52.118;5.408;2023-10-13T09:57:41;12.35;;;4.47;;
80127;SDS011;69440;52.118;5.408;2023-10-13T10:00:18;8.30;;;3.83;;
80127;SDS011;69440;52.118;5.408;2023-10-13T10:02:55;11.75;;;3.92;;
80127;SDS011;69440;52.118;5.408;2023-10-13T10:05:30;15.27;;;4.32;;
80127;SDS011;69440;52.118;5.408;2023-10-13T10:08:01;14.60;;;4.43;;
80127;SDS011;69440;52.118;5.408;2023-10-13T10:10:47;11.05;;;4.32;;
80127;SDS011;69440;52.118;5.408;2023-10-13T10:13:30;10.20;;;4.00;;
80127;SDS011;69440;52.118;5.408;2023-10-13T10:16:03;10.38;;;4.55;;
80127;SDS011;69440;52.118;5.408;2023-10-13T10:18:41;12.50;;;4.07;;
80127;SDS011;69440;52.118;5.408;2023-10-13T10:21:08;11.32;;;4.30;;
80127;SDS011;69440;52.118;5.408;2023-10-13T10:23:36;8.20;;;3.65;;
80127;SDS011;69440;52.118;5.408;2023-10-13T10:26:13;11.27;;;3.95;;
80127;SDS011;69440;52.118;5.408;2023-10-13T10:28:42;8.98;;;4.07;;
80127;SDS011;69440;52.118;5.408;2023-10-13T10:31:10;7.82;;;3.97;;
80127;SDS011;69440;52.118;5.408;2023-10-13T10:33:43;11.77;;;4.82;;
80127;SDS011;69440;52.118;5.408;2023-10-13T10:36:11;9.65;;;4.22;;
80127;SDS011;69440;52.118;5.408;2023-10-13T10:38:53;13.00;;;4.28;;
80127;SDS011;69440;52.118;5.408;2023-10-13T10:41:25;14.48;;;4.40;;
80127;SDS011;69440;52.118;5.408;2023-10-13T10:43:58;10.88;;;4.57;;
80127;SDS011;69440;52.118;5.408;2023-10-13T10:46:29;8.45;;;4.18;;
80127;SDS011;69440;52.118;5.408;2023-10-13T10:49:06;12.15;;;4.43;;
80127;SDS011;69440;52.118;5.408;2023-10-13T10:51:36;11.57;;;4.82;;
80127;SDS011;69440;52.118;5.408;2023-10-13T10:54:20;10.35;;;4.50;;
80127;SDS011;69440;52.118;5.408;2023-10-13T10:56:47;12.88;;;4.13;;
80127;SDS011;69440;52.118;5.408;2023-10-13T10:59:19;15.95;;;4.78;;
80127;SDS011;69440;52.118;5.408;2023-10-13T11:01:46;11.45;;;4.43;;
80127;SDS011;69440;52.118;5.408;2023-10-13T11:04:14;13.90;;;4.65;;
80127;SDS011;69440;52.118;5.408;2023-10-13T11:06:46;12.05;;;5.03;;
80127;SDS011;69440;52.118;5.408;2023-10-13T11:09:13;13.23;;;4.38;;
80127;SDS011;69440;52.118;5.408;2023-10-13T11:11:53;10.75;;;4.05;;
80127;SDS011;69440;52.118;5.408;2023-10-13T11:14:23;12.32;;;4.72;;
80127;SDS011;69440;52.118;5.408;2023-10-13T11:16:56;12.40;;;4.35;;
80127;SDS011;69440;52.118;5.408;2023-10-13T11:19:44;11.50;;;4.32;;
80127;SDS011;69440;52.118;5.408;2023-10-13T11:22:11;11.43;;;4.85;;
80127;SDS011;69440;52.118;5.408;2023-10-13T11:25:01;12.13;;;4.60;;
80127;SDS011;69440;52.118;5.408;2023-10-13T11:27:41;11.52;;;4.78;;
80127;SDS011;69440;52.118;5.408;2023-10-13T11:30:22;14.40;;;4.88;;
80127;SDS011;69440;52.118;5.408;2023-10-13T11:32:58;11.55;;;4.00;;
80127;SDS011;69440;52.118;5.408;2023-10-13T11:35:36;12.95;;;4.32;;
80127;SDS011;69440;52.118;5.408;2023-10-13T11:38:20;12.82;;;4.35;;
80127;SDS011;69440;52.118;5.408;2023-10-13T11:40:54;11.48;;;4.10;;
80127;SDS011;69440;52.118;5.408;2023-10-13T11:43:34;11.45;;;4.32;;
80127;SDS011;69440;52.118;5.408;2023-10-13T11:46:10;11.27;;;4.15;;
80127;SDS011;69440;52.118;5.408;2023-10-13T11:48:39;9.05;;;4.18;;
80127;SDS011;69440;52.118;5.408;2023-10-13T11:51:11;15.00;;;4.47;;
80127;SDS011;69440;52.118;5.408;2023-10-13T11:53:50;12.02;;;4.50;;
80127;SDS011;69440;52.118;5.408;2023-10-13T11:56:20;10.05;;;4.43;;
80127;SDS011;69440;52.118;5.408;2023-10-13T11:58:47;14.48;;;4.53;;
80127;SDS011;69440;52.118;5.408;2023-10-13T12:01:14;12.85;;;4.43;;
80127;SDS011;69440;52.118;5.408;2023-10-13T12:03:41;15.10;;;5.47;;
80127;SDS011;69440;52.118;5.408;2023-10-13T12:06:28;10.88;;;4.57;;
80127;SDS011;69440;52.118;5.408;2023-10-13T12:09:05;11.85;;;5.43;;
80127;SDS011;69440;52.118;5.408;2023-10-13T12:12:01;17.60;;;5.07;;
80127;SDS011;69440;52.118;5.408;2023-10-13T12:14:30;16.85;;;5.53;;
80127;SDS011;69440;52.118;5.408;2023-10-13T12:17:18;16.10;;;5.68;;
80127;SDS011;69440;52.118;5.408;2023-10-13T12:19:52;16.27;;;4.68;;
80127;SDS011;69440;52.118;5.408;2023-10-13T12:22:19;15.25;;;5.30;;
80127;SDS011;69440;52.118;5.408;2023-10-13T12:24:56;16.13;;;4.65;;
80127;SDS011;69440;52.118;5.408;2023-10-13T12:27:23;13.52;;;5.00;;
80127;SDS011;69440;52.118;5.408;2023-10-13T12:29:50;16.20;;;5.03;;
80127;SDS011;69440;52.118;5.408;2023-10-13T12:32:18;13.35;;;4.88;;
80127;SDS011;69440;52.118;5.408;2023-10-13T12:34:57;11.65;;;4.55;;
80127;SDS011;69440;52.118;5.408;2023-10-13T12:37:27;14.65;;;4.75;;
80127;SDS011;69440;52.118;5.408;2023-10-13T12:40:16;14.15;;;5.10;;
80127;SDS011;69440;52.118;5.408;2023-10-13T12:43:03;13.95;;;5.00;;
80127;SDS011;69440;52.118;5.408;2023-10-13T12:45:50;11.63;;;4.50;;
80127;SDS011;69440;52.118;5.408;2023-10-13T12:48:36;14.68;;;4.60;;
80127;SDS011;69440;52.118;5.408;2023-10-13T12:51:22;13.15;;;4.85;;
80127;SDS011;69440;52.118;5.408;2023-10-13T12:53:57;13.80;;;5.00;;
80127;SDS011;69440;52.118;5.408;2023-10-13T12:56:42;18.40;;;4.25;;
80127;SDS011;69440;52.118;5.408;2023-10-13T12:59:09;18.33;;;4.90;;
80127;SDS011;69440;52.118;5.408;2023-10-13T13:01:40;19.20;;;5.93;;
80127;SDS011;69440;52.118;5.408;2023-10-13T13:04:10;13.35;;;4.30;;
80127;SDS011;69440;52.118;5.408;2023-10-13T13:06:47;11.82;;;4.30;;
80127;SDS011;69440;52.118;5.408;2023-10-13T13:09:15;11.05;;;4.45;;
80127;SDS011;69440;52.118;5.408;2023-10-13T13:11:52;16.90;;;4.95;;
80127;SDS011;69440;52.118;5.408;2023-10-13T13:14:24;12.93;;;4.63;;
80127;SDS011;69440;52.118;5.408;2023-10-13T13:16:57;12.63;;;4.70;;
80127;SDS011;69440;52.118;5.408;2023-10-13T13:19:34;11.65;;;4.70;;
80127;SDS011;69440;52.118;5.408;2023-10-13T13:22:10;14.40;;;4.53;;
80127;SDS011;69440;52.118;5.408;2023-10-13T13:24:40;12.90;;;5.07;;
80127;SDS011;69440;52.118;5.408;2023-10-13T13:27:11;14.88;;;5.80;;
80127;SDS011;69440;52.118;5.408;2023-10-13T13:29:43;13.45;;;5.03;;
80127;SDS011;69440;52.118;5.408;2023-10-13T13:32:11;11.07;;;4.82;;
80127;SDS011;69440;52.118;5.408;2023-10-13T13:34:51;16.05;;;5.75;;
80127;SDS011;69440;52.118;5.408;2023-10-13T13:37:21;17.60;;;5.30;;
80127;SDS011;69440;52.118;5.408;2023-10-13T13:39:48;11.35;;;4.95;;
80127;SDS011;69440;52.118;5.408;2023-10-13T13:42:14;12.93;;;6.00;;
80127;SDS011;69440;52.118;5.408;2023-10-13T13:44:44;16.25;;;5.55;;
80127;SDS011;69440;52.118;5.408;2023-10-13T13:47:13;11.13;;;5.82;;
80127;SDS011;69440;52.118;5.408;2023-10-13T13:49:40;15.70;;;6.85;;
80127;SDS011;69440;52.118;5.408;2023-10-13T13:52:12;11.52;;;5.07;;
80127;SDS011;69440;52.118;5.408;2023-10-13T13:54:44;16.60;;;5.63;;
80127;SDS011;69440;52.118;5.408;2023-10-13T13:57:10;14.95;;;5.75;;
80127;SDS011;69440;52.118;5.408;2023-10-13T13:59:39;14.70;;;5.30;;
80127;SDS011;69440;52.118;5.408;2023-10-13T14:02:10;12.43;;;4.88;;
80127;SDS011;69440;52.118;5.408;2023-10-13T14:04:48;15.73;;;4.60;;
80127;SDS011;69440;52.118;5.408;2023-10-13T14:07:17;16.92;;;5.20;;
80127;SDS011;69440;52.118;5.408;2023-10-13T14:09:46;16.33;;;5.40;;
80127;SDS011;69440;52.118;5.408;2023-10-13T14:12:20;19.48;;;5.18;;
80127;SDS011;69440;52.118;5.408;2023-10-13T14:14:56;15.68;;;5.03;;
80127;SDS011;69440;52.118;5.408;2023-10-13T14:17:23;14.52;;;5.20;;
80127;SDS011;69440;52.118;5.408;2023-10-13T14:19:56;15.68;;;5.47;;
80127;SDS011;69440;52.118;5.408;2023-10-13T14:22:24;17.25;;;5.68;;
80127;SDS011;69440;52.118;5.408;2023-10-13T14:24:51;14.60;;;5.35;;
80127;SDS011;69440;52.118;5.408;2023-10-13T14:27:21;12.98;;;5.00;;
80127;SDS011;69440;52.118;5.408;2023-10-13T14:29:49;14.63;;;5.28;;
80127;SDS011;69440;52.118;5.408;2023-10-13T14:32:19;12.05;;;5.20;;
80127;SDS011;69440;52.118;5.408;2023-10-13T14:34:50;17.83;;;5.50;;
80127;SDS011;69440;52.118;5.408;2023-10-13T14:37:23;15.80;;;4.80;;
80127;SDS011;69440;52.118;5.408;2023-10-13T14:39:54;11.90;;;6.10;;
80127;SDS011;69440;52.118;5.408;2023-10-13T14:42:28;14.90;;;5.32;;
80127;SDS011;69440;52.118;5.408;2023-10-13T14:44:55;14.23;;;5.38;;
80127;SDS011;69440;52.118;5.408;2023-10-13T14:47:22;13.65;;;5.63;;
80127;SDS011;69440;52.118;5.408;2023-10-13T14:49:54;13.80;;;5.53;;
80127;SDS011;69440;52.118;5.408;2023-10-13T14:52:30;12.95;;;5.53;;
80127;SDS011;69440;52.118;5.408;2023-10-13T14:54:58;20.20;;;6.47;;
80127;SDS011;69440;52.118;5.408;2023-10-13T14:57:25;14.80;;;5.05;;
80127;SDS011;69440;52.118;5.408;2023-10-13T14:59:55;12.20;;;5.40;;
80127;SDS011;69440;52.118;5.408;2023-10-13T15:02:23;12.02;;;4.80;;
80127;SDS011;69440;52.118;5.408;2023-10-13T15:04:49;10.77;;;4.85;;
80127;SDS011;69440;52.118;5.408;2023-10-13T15:07:16;13.45;;;5.10;;
80127;SDS011;69440;52.118;5.408;2023-10-13T15:09:44;17.35;;;5.53;;
80127;SDS011;69440;52.118;5.408;2023-10-13T15:12:11;14.52;;;5.00;;
80127;SDS011;69440;52.118;5.408;2023-10-13T15:14:41;16.00;;;5.18;;
80127;SDS011;69440;52.118;5.408;2023-10-13T15:17:09;17.05;;;5.25;;
80127;SDS011;69440;52.118;5.408;2023-10-13T15:19:36;9.13;;;4.82;;
80127;SDS011;69440;52.118;5.408;2023-10-13T15:22:05;12.55;;;5.32;;
80127;SDS011;69440;52.118;5.408;2023-10-13T15:24:39;15.50;;;6.40;;
80127;SDS011;69440;52.118;5.408;2023-10-13T15:27:23;11.10;;;4.60;;
80127;SDS011;69440;52.118;5.408;2023-10-13T15:29:50;9.10;;;4.85;;
80127;SDS011;69440;52.118;5.408;2023-10-13T15:32:17;12.73;;;5.07;;
80127;SDS011;69440;52.118;5.408;2023-10-13T15:35:03;11.30;;;5.07;;